createdAt,value
2023-05-22T00:01:17.490Z,9.30
2023-05-22T00:03:43.960Z,9.32
2023-05-22T00:06:10.424Z,8.77
2023-05-22T00:08:36.924Z,7.78
2023-05-22T00:11:03.413Z,9.10
2023-05-22T00:13:29.864Z,8.05
2023-05-22T00:15:56.413Z,8.95
2023-05-22T00:18:22.847Z,8.77
2023-05-22T00:20:49.271Z,8.55
2023-05-22T00:23:15.863Z,7.82
2023-05-22T00:25:42.418Z,9.00
2023-05-22T00:28:08.912Z,9.43
2023-05-22T00:30:35.419Z,8.85
2023-05-22T00:33:01.999Z,8.65
2023-05-22T00:35:28.511Z,8.60
2023-05-22T00:37:54.963Z,9.48
2023-05-22T00:40:21.397Z,8.32
2023-05-22T00:42:47.887Z,8.38
2023-05-22T00:45:14.341Z,7.80
2023-05-22T00:47:40.853Z,7.90
2023-05-22T00:50:07.370Z,8.77
2023-05-22T00:52:33.844Z,7.60
2023-05-22T00:55:00.340Z,8.05
2023-05-22T00:57:26.941Z,8.95
2023-05-22T00:59:53.466Z,8.30
2023-05-22T01:02:19.941Z,8.90
2023-05-22T01:04:46.657Z,7.90
2023-05-22T01:07:13.166Z,8.02
2023-05-22T01:09:39.638Z,7.50
2023-05-22T01:12:06.082Z,7.85
2023-05-22T01:14:32.531Z,7.38
2023-05-22T01:16:59.002Z,7.50
2023-05-22T01:19:25.907Z,8.27
2023-05-22T01:21:52.545Z,7.75
2023-05-22T01:24:19.153Z,8.50
2023-05-22T01:26:45.635Z,7.00
2023-05-22T01:29:12.118Z,7.53
2023-05-22T01:31:38.597Z,8.25
2023-05-22T01:34:05.136Z,8.07
2023-05-22T01:36:31.629Z,7.55
2023-05-22T01:38:58.057Z,7.15
2023-05-22T01:41:24.514Z,7.47
2023-05-22T01:43:50.994Z,6.68
2023-05-22T01:46:17.472Z,7.70
2023-05-22T01:48:45.234Z,7.40
2023-05-22T01:51:11.667Z,6.85
2023-05-22T01:53:38.178Z,7.28
2023-05-22T01:56:04.663Z,7.65
2023-05-22T01:58:31.179Z,7.10
2023-05-22T02:00:57.774Z,7.18
2023-05-22T02:03:24.335Z,7.45
2023-05-22T02:05:50.856Z,6.80
2023-05-22T02:08:17.292Z,7.57
2023-05-22T02:10:43.786Z,7.75
2023-05-22T02:13:10.223Z,7.20
2023-05-22T02:15:36.745Z,7.70
2023-05-22T02:18:03.397Z,7.57
2023-05-22T02:20:29.917Z,7.32
2023-05-22T02:22:56.364Z,7.55
2023-05-22T02:25:22.804Z,7.60
2023-05-22T02:27:49.270Z,7.10
2023-05-22T02:30:15.708Z,6.28
2023-05-22T02:32:42.254Z,7.05
2023-05-22T02:35:08.755Z,6.85
2023-05-22T02:37:35.253Z,6.85
2023-05-22T02:40:01.751Z,7.07
2023-05-22T02:42:28.180Z,6.43
2023-05-22T02:44:54.642Z,6.45
2023-05-22T02:47:21.146Z,7.32
2023-05-22T02:49:47.640Z,6.63
2023-05-22T02:52:14.079Z,6.60
2023-05-22T02:54:40.518Z,6.28
2023-05-22T02:57:07.012Z,6.90
2023-05-22T02:59:33.482Z,6.40
2023-05-22T03:02:00.000Z,6.82
2023-05-22T03:04:26.997Z,6.53
2023-05-22T03:06:53.476Z,6.93
2023-05-22T03:09:19.958Z,6.60
2023-05-22T03:11:46.404Z,6.47
2023-05-22T03:14:12.872Z,6.78
2023-05-22T03:16:39.422Z,6.28
2023-05-22T03:19:05.969Z,5.93
2023-05-22T03:21:32.462Z,7.20
2023-05-22T03:23:58.958Z,6.55
2023-05-22T03:26:25.394Z,6.65
2023-05-22T03:28:52.234Z,7.07
2023-05-22T03:31:18.984Z,7.90
2023-05-22T03:33:45.542Z,7.47
2023-05-22T03:36:12.031Z,7.90
2023-05-22T03:38:38.521Z,7.40
2023-05-22T03:41:04.966Z,7.80
2023-05-22T03:43:31.523Z,7.75
2023-05-22T03:45:58.043Z,6.75
2023-05-22T03:48:24.588Z,6.97
2023-05-22T03:50:51.076Z,7.80
2023-05-22T03:53:17.603Z,7.30
2023-05-22T03:55:44.298Z,6.75
2023-05-22T03:58:11.048Z,7.85
2023-05-22T04:00:37.697Z,8.40
2023-05-22T04:03:04.396Z,7.72
2023-05-22T04:05:30.935Z,7.68
2023-05-22T04:07:57.388Z,8.02
2023-05-22T04:10:23.912Z,7.60
2023-05-22T04:12:50.397Z,6.97
2023-05-22T04:15:16.838Z,7.07
2023-05-22T04:17:43.344Z,7.78
2023-05-22T04:20:09.817Z,6.70
2023-05-22T04:22:36.345Z,6.95
2023-05-22T04:25:02.808Z,6.82
2023-05-22T04:27:29.308Z,7.50
2023-05-22T04:29:55.964Z,8.32
2023-05-22T04:32:22.564Z,7.63
2023-05-22T04:34:49.104Z,7.63
2023-05-22T04:37:15.535Z,8.32
2023-05-22T04:39:41.996Z,7.70
2023-05-22T04:42:08.469Z,6.95
2023-05-22T04:44:34.942Z,7.20
2023-05-22T04:47:01.417Z,8.63
2023-05-22T04:49:27.845Z,8.10
2023-05-22T04:51:54.330Z,7.88
2023-05-22T04:54:20.772Z,7.85
2023-05-22T04:56:47.233Z,8.18
2023-05-22T04:59:13.710Z,8.63
2023-05-22T05:01:40.302Z,8.23
2023-05-22T05:04:06.988Z,8.57
2023-05-22T05:06:33.510Z,9.18
2023-05-22T05:09:00.010Z,9.10
2023-05-22T05:11:26.469Z,9.80
2023-05-22T05:13:53.016Z,9.70
2023-05-22T05:16:19.489Z,10.98
2023-05-22T05:18:46.028Z,10.35
2023-05-22T05:21:12.506Z,11.40
2023-05-22T05:23:39.000Z,10.32
2023-05-22T05:26:05.490Z,12.02
2023-05-22T05:28:31.936Z,12.82
2023-05-22T05:30:58.419Z,13.48
2023-05-22T05:33:24.909Z,11.07
2023-05-22T05:35:51.406Z,11.95
2023-05-22T05:38:17.926Z,11.75
2023-05-22T05:40:44.408Z,10.90
2023-05-22T05:43:10.873Z,10.68
2023-05-22T05:45:37.308Z,9.43
2023-05-22T05:48:03.834Z,9.30
2023-05-22T05:50:30.383Z,9.93
2023-05-22T05:52:57.030Z,10.48
2023-05-22T05:55:23.462Z,9.27
2023-05-22T05:57:50.056Z,9.23
2023-05-22T06:00:16.482Z,10.13
2023-05-22T06:02:43.083Z,10.55
2023-05-22T06:05:09.673Z,10.10
2023-05-22T06:07:36.164Z,9.73
2023-05-22T06:10:02.638Z,11.20
2023-05-22T06:12:29.103Z,11.38
2023-05-22T06:14:55.673Z,11.68
2023-05-22T06:17:22.136Z,10.20
2023-05-22T06:19:48.736Z,11.35
2023-05-22T06:22:15.198Z,11.32
2023-05-22T06:24:41.703Z,11.30
2023-05-22T06:27:08.240Z,12.80
2023-05-22T06:29:34.726Z,12.43
2023-05-22T06:32:01.212Z,12.07
2023-05-22T06:34:27.771Z,12.48
2023-05-22T06:36:54.359Z,12.70
2023-05-22T06:39:20.832Z,12.57
2023-05-22T06:41:47.301Z,12.52
2023-05-22T06:44:13.764Z,11.77
2023-05-22T06:46:40.303Z,11.98
2023-05-22T06:49:06.838Z,11.82
2023-05-22T06:51:33.326Z,10.40
2023-05-22T06:53:59.797Z,11.38
2023-05-22T06:56:26.259Z,10.85
2023-05-22T06:58:52.677Z,10.88
2023-05-22T07:01:19.249Z,10.88
2023-05-22T07:03:45.779Z,10.75
2023-05-22T07:06:12.324Z,10.27
2023-05-22T07:08:38.914Z,10.93
2023-05-22T07:11:05.385Z,10.55
2023-05-22T07:13:31.840Z,10.88
2023-05-22T07:15:58.351Z,11.02
2023-05-22T07:18:24.857Z,12.07
2023-05-22T07:20:51.393Z,12.27
2023-05-22T07:23:17.875Z,11.52
2023-05-22T07:25:44.348Z,11.30
2023-05-22T07:28:10.847Z,11.45
2023-05-22T07:30:37.494Z,11.25
2023-05-22T07:33:04.133Z,11.88
2023-05-22T07:35:30.724Z,11.30
2023-05-22T07:37:57.217Z,10.43
2023-05-22T07:40:24.541Z,11.65
2023-05-22T07:42:52.810Z,12.77
2023-05-22T07:45:19.307Z,13.32
2023-05-22T07:47:45.878Z,11.85
2023-05-22T07:50:12.400Z,12.32
2023-05-22T07:52:38.843Z,11.13
2023-05-22T07:55:05.343Z,11.50
2023-05-22T07:57:31.856Z,12.40
2023-05-22T07:59:58.291Z,10.23
2023-05-22T08:02:24.844Z,11.52
2023-05-22T08:04:51.373Z,10.77
2023-05-22T08:07:17.860Z,10.57
2023-05-22T08:09:44.354Z,10.27
2023-05-22T08:12:10.852Z,11.95
2023-05-22T08:14:37.908Z,12.48
2023-05-22T08:17:04.466Z,12.23
2023-05-22T08:19:31.038Z,11.63
2023-05-22T08:21:57.560Z,12.52
2023-05-22T08:24:24.099Z,12.40
2023-05-22T08:26:50.531Z,11.00
2023-05-22T08:29:16.988Z,10.45
2023-05-22T08:31:43.497Z,9.65
2023-05-22T08:34:10.016Z,10.88
2023-05-22T08:36:36.455Z,10.57
2023-05-22T08:39:02.922Z,12.00
2023-05-22T08:41:29.428Z,10.88
2023-05-22T08:43:56.085Z,11.40
2023-05-22T08:46:22.568Z,10.43
2023-05-22T08:48:49.167Z,9.60
2023-05-22T08:51:15.584Z,10.75
2023-05-22T08:53:42.120Z,11.68
2023-05-22T08:56:08.655Z,10.85
2023-05-22T08:58:35.243Z,9.48
2023-05-22T09:01:01.790Z,9.05
2023-05-22T09:03:28.475Z,10.55
2023-05-22T09:05:55.029Z,9.95
2023-05-22T09:08:21.547Z,11.40
2023-05-22T09:10:48.083Z,9.40
2023-05-22T09:13:14.573Z,10.63
2023-05-22T09:15:41.061Z,9.57
2023-05-22T09:18:07.563Z,9.65
2023-05-22T09:20:34.062Z,10.10
2023-05-22T09:23:00.574Z,8.73
2023-05-22T09:25:27.197Z,9.77
2023-05-22T09:27:53.674Z,9.35
2023-05-22T09:30:20.325Z,9.40
2023-05-22T09:32:46.874Z,9.32
2023-05-22T09:35:13.398Z,9.68
2023-05-22T09:37:39.832Z,9.70
2023-05-22T09:40:06.302Z,7.93
2023-05-22T09:42:32.720Z,8.45
2023-05-22T09:44:59.176Z,8.68
2023-05-22T09:47:26.032Z,7.70
2023-05-22T09:49:52.543Z,7.75
2023-05-22T09:52:19.296Z,7.45
2023-05-22T09:54:45.822Z,6.93
2023-05-22T09:57:12.322Z,7.55
2023-05-22T09:59:38.743Z,8.32
2023-05-22T10:02:05.418Z,7.15
2023-05-22T10:04:31.979Z,8.15
2023-05-22T10:06:58.701Z,7.15
2023-05-22T10:09:25.187Z,7.72
2023-05-22T10:11:51.717Z,6.82
2023-05-22T10:14:18.184Z,7.45
2023-05-22T10:16:44.660Z,7.10
2023-05-22T10:19:11.113Z,8.25
2023-05-22T10:21:37.622Z,6.78
2023-05-22T10:24:04.110Z,7.97
2023-05-22T10:26:30.585Z,6.60
2023-05-22T10:28:57.179Z,7.22
2023-05-22T10:31:23.639Z,6.57
2023-05-22T10:33:50.297Z,7.22
2023-05-22T10:36:17.058Z,7.32
2023-05-22T10:38:43.608Z,8.70
2023-05-22T10:41:10.099Z,6.97
2023-05-22T10:43:36.624Z,7.65
2023-05-22T10:46:03.141Z,7.65
2023-05-22T10:48:29.598Z,6.40
2023-05-22T10:50:56.861Z,6.80
2023-05-22T10:53:24.546Z,6.78
2023-05-22T10:55:51.043Z,7.15
2023-05-22T10:58:17.516Z,6.85
2023-05-22T11:00:43.985Z,6.22
2023-05-22T11:03:17.688Z,9.10
2023-05-22T11:05:44.920Z,8.40
2023-05-22T11:08:11.378Z,9.38
2023-05-22T11:10:37.964Z,8.63
2023-05-22T11:13:04.731Z,8.43
2023-05-22T11:15:31.279Z,8.25
2023-05-22T11:17:57.789Z,7.53
2023-05-22T11:20:24.250Z,7.25
2023-05-22T11:22:50.736Z,7.10
2023-05-22T11:25:17.175Z,6.72
2023-05-22T11:27:43.613Z,6.75
2023-05-22T11:30:10.078Z,5.72
2023-05-22T11:32:36.633Z,6.32
2023-05-22T11:35:03.111Z,6.65
2023-05-22T11:37:29.595Z,8.15
2023-05-22T11:39:56.203Z,8.73
2023-05-22T11:42:22.645Z,6.85
2023-05-22T11:44:49.237Z,7.65
2023-05-22T11:47:15.733Z,7.53
2023-05-22T11:49:42.184Z,7.65
2023-05-22T11:52:08.643Z,8.13
2023-05-22T11:54:37.050Z,7.97
2023-05-22T11:57:05.112Z,8.27
2023-05-22T11:59:31.540Z,6.93
2023-05-22T12:01:58.015Z,7.43
2023-05-22T12:04:24.459Z,6.75
2023-05-22T12:06:51.000Z,7.90
2023-05-22T12:09:17.587Z,6.50
2023-05-22T12:11:44.059Z,6.57
2023-05-22T12:14:10.478Z,6.38
2023-05-22T12:16:37.127Z,6.40
2023-05-22T12:19:03.715Z,6.00
2023-05-22T12:21:30.195Z,6.25
2023-05-22T12:23:56.684Z,6.18
2023-05-22T12:26:23.182Z,5.60
2023-05-22T12:28:49.665Z,6.68
2023-05-22T12:31:16.116Z,5.43
2023-05-22T12:33:42.573Z,6.47
2023-05-22T12:36:09.075Z,6.53
2023-05-22T12:38:35.727Z,6.25
2023-05-22T12:41:02.188Z,5.68
2023-05-22T12:43:28.664Z,5.05
2023-05-22T12:45:55.238Z,7.50
2023-05-22T12:48:21.753Z,6.63
2023-05-22T12:50:48.308Z,5.95
2023-05-22T12:53:14.796Z,6.20
2023-05-22T12:55:41.303Z,5.88
2023-05-22T12:58:07.761Z,6.60
2023-05-22T13:00:34.235Z,9.45
2023-05-22T13:03:00.798Z,11.25
2023-05-22T13:05:27.395Z,8.80
2023-05-22T13:07:53.927Z,8.35
2023-05-22T13:10:20.380Z,7.97
2023-05-22T13:12:46.848Z,9.88
2023-05-22T13:15:13.321Z,12.60
2023-05-22T13:17:39.854Z,10.82
2023-05-22T13:20:06.327Z,8.32
2023-05-22T13:22:32.801Z,7.30
2023-05-22T13:24:59.282Z,7.20
2023-05-22T13:27:25.788Z,7.30
2023-05-22T13:29:52.438Z,7.45
2023-05-22T13:32:19.067Z,8.68
2023-05-22T13:34:45.735Z,8.50
2023-05-22T13:37:12.431Z,7.10
2023-05-22T13:39:38.919Z,7.70
2023-05-22T13:42:05.397Z,7.63
2023-05-22T13:44:31.888Z,7.78
2023-05-22T13:46:58.378Z,8.18
2023-05-22T13:49:24.904Z,7.78
2023-05-22T13:51:51.405Z,7.50
2023-05-22T13:54:17.897Z,7.53
2023-05-22T13:56:44.380Z,7.65
2023-05-22T13:59:10.840Z,7.72
2023-05-22T14:01:37.474Z,6.47
2023-05-22T14:04:04.463Z,6.63
2023-05-22T14:06:30.924Z,6.30
2023-05-22T14:08:57.388Z,6.45
2023-05-22T14:11:23.898Z,7.30
2023-05-22T14:13:50.502Z,6.93
2023-05-22T14:16:16.989Z,7.18
2023-05-22T14:18:43.479Z,7.78
2023-05-22T14:21:09.945Z,7.93
2023-05-22T14:23:36.358Z,6.97
2023-05-22T14:26:02.822Z,7.75
2023-05-22T14:28:29.257Z,8.25
2023-05-22T14:30:55.757Z,9.07
2023-05-22T14:33:22.259Z,9.18
2023-05-22T14:35:48.773Z,8.73
2023-05-22T14:38:15.297Z,9.15
2023-05-22T14:40:41.735Z,9.32
2023-05-22T14:43:08.193Z,9.68
2023-05-22T14:45:34.689Z,10.15
2023-05-22T14:48:01.171Z,9.80
2023-05-22T14:50:27.646Z,10.50
2023-05-22T14:52:54.109Z,10.82
2023-05-22T14:55:20.608Z,10.45
2023-05-22T14:57:47.037Z,10.93
2023-05-22T15:00:13.478Z,10.25
2023-05-22T15:02:40.016Z,11.30
2023-05-22T15:05:06.607Z,9.90
2023-05-22T15:07:43.261Z,10.27
2023-05-22T15:10:11.706Z,10.68
2023-05-22T15:12:38.196Z,8.90
2023-05-22T15:15:04.739Z,9.32
2023-05-22T15:17:31.266Z,9.75
2023-05-22T15:19:57.769Z,9.65
2023-05-22T15:22:24.289Z,9.55
2023-05-22T15:24:50.744Z,10.27
2023-05-22T15:27:17.194Z,9.13
2023-05-22T15:29:43.610Z,9.63
2023-05-22T15:32:10.192Z,9.65
2023-05-22T15:34:36.749Z,9.75
2023-05-22T15:37:03.261Z,9.43
2023-05-22T15:39:29.729Z,9.13
2023-05-22T15:42:05.906Z,9.15
2023-05-22T15:44:33.125Z,10.38
2023-05-22T15:46:59.610Z,9.57
2023-05-22T15:49:27.419Z,10.45
2023-05-22T15:51:55.150Z,9.02
2023-05-22T15:54:21.749Z,8.07
2023-05-22T15:56:48.247Z,8.52
2023-05-22T15:59:14.701Z,8.15
2023-05-22T16:01:41.384Z,7.80
2023-05-22T16:04:07.969Z,7.53
2023-05-22T16:06:34.432Z,7.75
2023-05-22T16:09:00.882Z,6.97
2023-05-22T16:11:27.377Z,7.28
2023-05-22T16:13:53.892Z,6.15
2023-05-22T16:16:20.616Z,6.55
2023-05-22T16:18:47.161Z,5.55
2023-05-22T16:21:13.616Z,7.13
2023-05-22T16:23:40.103Z,6.43
2023-05-22T16:26:06.583Z,6.75
2023-05-22T16:28:33.047Z,6.72
2023-05-22T16:30:59.603Z,6.57
2023-05-22T16:33:26.094Z,5.93
2023-05-22T16:35:52.591Z,5.57
2023-05-22T16:38:19.420Z,6.05
2023-05-22T16:40:45.837Z,4.97
2023-05-22T16:43:12.292Z,5.25
2023-05-22T16:45:38.976Z,4.32
2023-05-22T16:48:05.726Z,4.47
2023-05-22T16:50:32.205Z,4.68
2023-05-22T16:52:58.673Z,4.05
2023-05-22T16:55:25.126Z,3.90
2023-05-22T16:57:51.546Z,4.03
2023-05-22T17:00:18.071Z,3.17
2023-05-22T17:02:44.645Z,3.63
2023-05-22T17:05:11.140Z,4.10
2023-05-22T17:07:37.636Z,3.70
2023-05-22T17:10:04.153Z,3.45
2023-05-22T17:12:30.601Z,3.45
2023-05-22T17:14:57.072Z,3.17
2023-05-22T17:17:23.532Z,3.42
2023-05-22T17:19:50.015Z,3.88
2023-05-22T17:22:16.517Z,3.67
2023-05-22T17:24:43.010Z,3.30
2023-05-22T17:27:09.549Z,3.33
2023-05-22T17:29:36.200Z,3.25
2023-05-22T17:32:02.730Z,3.60
2023-05-22T17:34:29.178Z,3.40
2023-05-22T17:36:55.754Z,3.60
2023-05-22T17:39:22.261Z,3.60
2023-05-22T17:41:48.754Z,3.47
2023-05-22T17:44:15.222Z,3.83
2023-05-22T17:46:41.843Z,3.58
2023-05-22T17:49:08.361Z,3.75
2023-05-22T17:51:34.833Z,3.95
2023-05-22T17:54:01.311Z,4.20
2023-05-22T17:56:27.778Z,3.55
2023-05-22T17:58:54.270Z,3.75
2023-05-22T18:01:20.792Z,4.00
2023-05-22T18:03:47.422Z,3.55
2023-05-22T18:06:14.178Z,3.40
2023-05-22T18:08:40.670Z,3.30
2023-05-22T18:11:07.127Z,3.67
2023-05-22T18:13:33.625Z,3.85
2023-05-22T18:16:00.163Z,4.18
2023-05-22T18:18:26.875Z,4.82
2023-05-22T18:20:53.437Z,5.22
2023-05-22T18:23:19.892Z,5.13
2023-05-22T18:25:46.390Z,4.65
2023-05-22T18:28:12.864Z,5.25
2023-05-22T18:30:39.484Z,5.25
2023-05-22T18:33:06.242Z,4.55
2023-05-22T18:35:32.740Z,4.63
2023-05-22T18:37:59.193Z,5.30
2023-05-22T18:40:25.915Z,5.10
2023-05-22T18:42:52.469Z,4.20
2023-05-22T18:45:18.937Z,5.40
2023-05-22T18:47:45.484Z,4.70
2023-05-22T18:50:11.959Z,4.32
2023-05-22T18:52:38.454Z,4.40
2023-05-22T18:55:04.896Z,4.63
2023-05-22T18:57:31.406Z,4.15
2023-05-22T18:59:57.882Z,4.82
2023-05-22T19:02:24.390Z,3.85
2023-05-22T19:04:50.953Z,4.45
2023-05-22T19:07:17.504Z,4.40
2023-05-22T19:09:44.042Z,4.30
2023-05-22T19:12:10.579Z,4.47
2023-05-22T19:14:37.061Z,4.47
2023-05-22T19:17:03.797Z,4.05
2023-05-22T19:19:30.448Z,3.60
2023-05-22T19:21:57.044Z,4.78
2023-05-22T19:24:23.530Z,4.20
2023-05-22T19:26:49.961Z,3.97
2023-05-22T19:29:16.416Z,4.60
2023-05-22T19:31:42.907Z,4.55
2023-05-22T19:34:09.420Z,4.32
2023-05-22T19:36:35.903Z,4.20
2023-05-22T19:39:02.395Z,4.22
2023-05-22T19:41:28.927Z,4.38
2023-05-22T19:43:55.774Z,4.18
2023-05-22T19:46:22.299Z,3.97
2023-05-22T19:48:48.742Z,4.32
2023-05-22T19:51:15.228Z,3.88
2023-05-22T19:53:41.731Z,4.07
2023-05-22T19:56:08.219Z,3.80
2023-05-22T19:58:34.669Z,4.13
2023-05-22T20:01:01.189Z,3.63
2023-05-22T20:03:27.748Z,4.30
2023-05-22T20:05:54.283Z,3.78
2023-05-22T20:08:20.759Z,3.97
2023-05-22T20:10:47.191Z,5.03
2023-05-22T20:13:13.659Z,4.43
2023-05-22T20:15:40.346Z,4.97
2023-05-22T20:18:07.027Z,4.68
2023-05-22T20:20:33.505Z,4.63
2023-05-22T20:22:59.930Z,4.60
2023-05-22T20:25:26.744Z,4.80
2023-05-22T20:27:53.457Z,4.05
2023-05-22T20:30:19.929Z,4.35
2023-05-22T20:32:46.922Z,4.50
2023-05-22T20:35:13.511Z,3.97
2023-05-22T20:37:39.992Z,4.75
2023-05-22T20:40:06.510Z,5.57
2023-05-22T20:42:32.966Z,5.78
2023-05-22T20:44:59.388Z,5.80
2023-05-22T20:47:25.988Z,6.45
2023-05-22T20:49:52.506Z,6.63
2023-05-22T20:52:18.975Z,8.00
2023-05-22T20:54:45.402Z,9.32
2023-05-22T20:57:11.913Z,8.25
2023-05-22T20:59:38.390Z,7.55
2023-05-22T21:02:04.907Z,8.15
2023-05-22T21:04:31.516Z,8.85
2023-05-22T21:06:58.067Z,8.48
2023-05-22T21:09:24.555Z,7.55
2023-05-22T21:11:51.061Z,8.85
2023-05-22T21:14:17.565Z,8.55
2023-05-22T21:16:44.080Z,8.35
2023-05-22T21:19:10.570Z,8.65
2023-05-22T21:21:37.085Z,7.22
2023-05-22T21:24:03.587Z,7.40
2023-05-22T21:26:30.049Z,7.55
2023-05-22T21:28:56.888Z,7.18
2023-05-22T21:31:23.377Z,7.10
2023-05-22T21:33:49.838Z,6.70
2023-05-22T21:36:16.327Z,6.40
2023-05-22T21:38:42.844Z,6.63
2023-05-22T21:41:09.301Z,6.43
2023-05-22T21:43:35.747Z,6.00
2023-05-22T21:46:02.162Z,6.38
2023-05-22T21:48:28.639Z,5.57
2023-05-22T21:50:55.124Z,5.15
2023-05-22T21:53:21.614Z,5.10
2023-05-22T21:55:48.060Z,5.07
2023-05-22T21:58:14.481Z,4.88
2023-05-22T22:00:41.159Z,4.40
2023-05-22T22:03:07.987Z,4.28
2023-05-22T22:05:34.643Z,4.50
2023-05-22T22:08:01.100Z,4.68
2023-05-22T22:10:27.587Z,5.10
2023-05-22T22:12:54.049Z,5.22
2023-05-22T22:15:20.528Z,4.45
2023-05-22T22:17:47.059Z,4.72
2023-05-22T22:20:13.576Z,4.38
2023-05-22T22:22:40.012Z,4.97
2023-05-22T22:25:06.460Z,4.47
2023-05-22T22:27:32.905Z,4.85
2023-05-22T22:29:59.382Z,4.22
2023-05-22T22:32:25.908Z,4.97
2023-05-22T22:34:52.516Z,5.55
2023-05-22T22:37:18.967Z,4.80
2023-05-22T22:39:45.473Z,4.85
2023-05-22T22:42:12.183Z,5.70
2023-05-22T22:44:38.670Z,5.07
2023-05-22T22:47:05.145Z,5.22
2023-05-22T22:49:31.587Z,5.07
2023-05-22T22:51:58.061Z,5.47
2023-05-22T22:54:24.502Z,5.35
2023-05-22T22:56:51.658Z,5.43
2023-05-22T22:59:18.151Z,5.50
2023-05-22T23:01:44.699Z,5.60
2023-05-22T23:04:11.333Z,6.20
2023-05-22T23:06:38.002Z,6.18
2023-05-22T23:09:04.489Z,5.60
2023-05-22T23:11:30.973Z,6.55
2023-05-22T23:13:57.479Z,6.20
2023-05-22T23:16:24.150Z,5.50
2023-05-22T23:18:50.654Z,5.03
2023-05-22T23:21:17.149Z,6.28
2023-05-22T23:23:43.593Z,6.38
2023-05-22T23:26:10.062Z,5.97
2023-05-22T23:28:36.573Z,5.80
2023-05-22T23:31:03.063Z,5.78
2023-05-22T23:33:29.620Z,6.95
2023-05-22T23:35:56.052Z,6.28
2023-05-22T23:38:22.515Z,6.40
2023-05-22T23:40:48.990Z,6.35
2023-05-22T23:43:15.426Z,7.10
2023-05-22T23:45:42.129Z,7.22
2023-05-22T23:48:08.824Z,7.43
2023-05-22T23:50:35.334Z,8.32
2023-05-22T23:53:01.800Z,7.25
2023-05-22T23:55:28.273Z,8.50
2023-05-22T23:57:54.733Z,8.75
